Time;durP1;ratioP1;P1;durP2;ratioP2;P2;SDS_P1;SDS_P2;PMS_P1;PMS_P2;Temp;Humidity;BMP_temperature;BMP_pressure;BME280_temperature;BME280_humidity;BME280_pressure;Samples;Min_cycle;Max_cycle;Signal;HPM_P1;HPM_P2
2021/04/15 04:01:16;;;;;;;24.70;15.10;;;0.90;99.90;;;;;;5557810;23;20760;-75
2021/04/15 04:03:45;;;;;;;22.98;16.10;;;0.90;99.90;;;;;;4919345;29;20507;-75
2021/04/15 04:06:16;;;;;;;19.60;14.77;;;0.90;99.90;;;;;;4908109;29;20214;-72
2021/04/15 04:08:46;;;;;;;23.55;15.50;;;0.90;99.90;;;;;;4916447;29;20218;-72
2021/04/15 04:11:15;;;;;;;19.88;14.65;;;0.90;99.90;;;;;;4914899;29;20275;-72
2021/04/15 04:13:46;;;;;;;19.55;16.20;;;0.90;99.90;;;;;;4915897;29;20233;-72
2021/04/15 04:16:23;;;;;;;20.58;15.90;;;0.90;99.90;;;;;;4915686;29;20206;-71
2021/04/15 04:18:54;;;;;;;22.70;16.30;;;0.90;99.90;;;;;;4916760;29;20213;-71
2021/04/15 04:21:29;;;;;;;20.02;16.30;;;0.90;99.90;;;;;;4915365;29;20226;-72
2021/04/15 04:24:06;;;;;;;20.17;16.65;;;0.80;99.90;;;;;;4916340;29;20217;-71
2021/04/15 04:26:37;;;;;;;25.63;17.50;;;0.80;99.90;;;;;;4908618;29;20206;-72
2021/04/15 04:29:17;;;;;;;21.92;16.80;;;0.80;99.90;;;;;;4915843;29;20269;-73
2021/04/15 04:31:46;;;;;;;23.33;16.63;;;0.80;99.90;;;;;;4908710;29;20742;-72
2021/04/15 04:34:15;;;;;;;19.95;15.18;;;0.80;99.90;;;;;;4915784;29;20233;-72
2021/04/15 04:36:43;;;;;;;22.92;16.15;;;0.90;99.90;;;;;;4915460;29;20207;-72
2021/04/15 04:39:12;;;;;;;22.38;15.65;;;0.90;99.90;;;;;;4916488;29;20206;-72
2021/04/15 04:41:51;;;;;;;23.55;16.48;;;0.90;99.90;;;;;;4915814;29;20640;-71
2021/04/15 04:44:26;;;;;;;21.98;14.85;;;0.90;99.90;;;;;;4915391;29;20244;-71
2021/04/15 04:47:03;;;;;;;22.73;15.70;;;0.90;99.90;;;;;;4916030;29;20270;-72
2021/04/15 04:49:34;;;;;;;22.45;17.45;;;0.90;99.90;;;;;;4916358;29;20210;-72
2021/04/15 04:52:03;;;;;;;20.90;16.73;;;0.90;99.90;;;;;;4914487;29;20265;-71
2021/04/15 04:54:30;;;;;;;23.52;16.98;;;1.00;99.90;;;;;;4915774;29;20218;-71
2021/04/15 04:57:06;;;;;;;21.83;16.13;;;1.10;99.90;;;;;;4916004;29;20215;-72
2021/04/15 04:59:37;;;;;;;21.05;16.42;;;1.10;99.90;;;;;;4915396;29;20266;-71
2021/04/15 05:02:05;;;;;;;21.73;15.93;;;1.30;99.90;;;;;;4919129;29;20302;-73
2021/04/15 05:04:34;;;;;;;21.38;17.45;;;1.50;99.90;;;;;;4918883;29;20210;-72
2021/04/15 05:07:02;;;;;;;20.58;15.85;;;1.60;99.90;;;;;;4919551;29;20671;-72
2021/04/15 05:09:34;;;;;;;18.08;16.13;;;1.70;99.90;;;;;;4919377;29;20198;-71
2021/04/15 05:12:05;;;;;;;19.27;15.77;;;1.80;99.90;;;;;;4912972;29;20230;-72
2021/04/15 05:14:32;;;;;;;17.98;15.88;;;1.90;99.90;;;;;;4919079;29;20305;-71
2021/04/15 05:17:02;;;;;;;18.52;14.05;;;2.00;99.90;;;;;;4919354;29;20675;-71
2021/04/15 05:19:31;;;;;;;18.55;14.02;;;2.20;99.90;;;;;;4919305;29;20237;-71
2021/04/15 05:22:00;;;;;;;15.43;13.88;;;2.20;99.90;;;;;;4919047;29;20317;-71
2021/04/15 05:24:29;;;;;;;14.57;13.18;;;2.40;99.90;;;;;;4918991;29;20206;-71
2021/04/15 05:26:58;;;;;;;14.00;12.35;;;2.50;99.90;;;;;;4919133;29;20687;-72
2021/04/15 05:29:27;;;;;;;15.27;13.77;;;2.60;99.90;;;;;;4919007;29;20210;-73
2021/04/15 05:31:55;;;;;;;14.93;13.40;;;2.70;99.90;;;;;;4919362;29;20226;-73
2021/04/15 05:34:25;;;;;;;14.93;13.63;;;2.80;99.90;;;;;;4919093;29;20244;-73
2021/04/15 05:36:55;;;;;;;14.60;13.13;;;3.00;99.90;;;;;;4919380;29;20203;-73
2021/04/15 05:39:22;;;;;;;19.88;13.52;;;3.20;99.90;;;;;;4906223;29;20321;-73
2021/04/15 05:42:00;;;;;;;12.70;11.60;;;3.30;99.90;;;;;;4919586;29;20226;-73
2021/04/15 05:44:33;;;;;;;12.48;11.27;;;3.50;99.90;;;;;;4903426;29;20278;-73
2021/04/15 05:47:02;;;;;;;12.07;10.93;;;3.50;99.90;;;;;;4919132;29;20214;-72
2021/04/15 05:49:33;;;;;;;11.70;10.68;;;3.70;99.90;;;;;;4918798;29;20210;-72
2021/04/15 05:52:05;;;;;;;10.93;9.82;;;4.00;99.90;;;;;;4918039;29;20309;-71
2021/04/15 05:54:33;;;;;;;12.48;10.73;;;4.10;99.90;;;;;;4919164;29;20664;-71
2021/04/15 05:57:05;;;;;;;9.57;8.73;;;4.20;99.90;;;;;;4915394;29;20214;-70
2021/04/15 05:59:44;;;;;;;10.00;9.00;;;4.30;99.90;;;;;;4918725;29;20203;-71
2021/04/15 06:02:33;;;;;;;10.02;9.02;;;4.50;99.90;;;;;;4914824;29;20245;-71
2021/04/15 06:05:09;;;;;;;9.32;8.50;;;4.70;99.90;;;;;;4918805;29;20261;-71
2021/04/15 06:07:39;;;;;;;8.77;7.88;;;5.10;99.90;;;;;;4918633;29;20214;-71
2021/04/15 06:10:06;;;;;;;8.93;8.05;;;5.30;99.90;;;;;;4918824;29;20306;-75
2021/04/15 06:12:41;;;;;;;13.93;8.75;;;5.30;99.90;;;;;;4917599;29;20589;-75
2021/04/15 06:15:12;;;;;;;11.20;8.77;;;5.20;99.90;;;;;;4918802;29;20661;-74
2021/04/15 06:17:42;;;;;;;9.50;8.57;;;5.00;99.90;;;;;;4918577;29;20228;-71
2021/04/15 06:20:13;;;;;;;9.52;8.63;;;4.90;99.90;;;;;;4918880;29;20270;-72
2021/04/15 06:22:44;;;;;;;10.43;9.30;;;4.80;99.90;;;;;;4917609;29;20569;-71
2021/04/15 06:25:16;;;;;;;11.63;9.55;;;4.70;99.90;;;;;;4918333;29;20702;-74
2021/04/15 06:27:44;;;;;;;10.25;8.75;;;4.70;99.90;;;;;;4918179;29;20496;-73
2021/04/15 06:30:15;;;;;;;10.20;8.95;;;4.60;99.90;;;;;;4899154;29;20219;-73
2021/04/15 06:32:48;;;;;;;9.60;8.70;;;4.60;99.90;;;;;;4915791;29;20215;-73
2021/04/15 06:35:27;;;;;;;9.95;9.00;;;4.60;99.90;;;;;;4899824;29;20261;-75
2021/04/15 06:37:58;;;;;;;12.43;9.85;;;4.60;99.90;;;;;;4917341;29;20214;-73
2021/04/15 06:41:01;;;;;;;12.45;8.50;;;4.70;99.90;;;;;;4918291;29;20206;-72
2021/04/15 06:44:13;;;;;;;10.10;9.10;;;4.80;99.90;;;;;;4905816;29;20338;-70
2021/04/15 06:47:12;;;;;;;11.48;9.43;;;4.80;99.90;;;;;;4899202;29;20223;-70
2021/04/15 06:50:00;;;;;;;12.25;10.80;;;5.00;99.90;;;;;;4903332;29;20471;-70
2021/04/15 06:52:35;;;;;;;12.15;10.80;;;5.00;99.90;;;;;;4917435;29;20250;-70
2021/04/15 06:55:15;;;;;;;12.05;9.07;;;5.10;99.90;;;;;;4917717;29;20206;-70
2021/04/15 06:58:17;;;;;;;10.35;9.32;;;5.10;99.90;;;;;;4918160;29;20195;-70
2021/04/15 07:00:58;;;;;;;11.40;9.18;;;5.20;99.90;;;;;;4904617;29;20698;-69
2021/04/15 07:03:43;;;;;;;11.90;9.65;;;5.30;99.90;;;;;;4916899;29;20550;-69
2021/04/15 07:06:12;;;;;;;13.55;8.65;;;5.40;99.90;;;;;;4910246;29;20211;-69
2021/04/15 07:09:10;;;;;;;12.90;9.18;;;5.40;99.90;;;;;;4915880;29;20211;-70
2021/04/15 07:11:45;;;;;;;11.18;9.40;;;5.50;99.90;;;;;;4913339;29;20691;-69
2021/04/15 07:14:27;;;;;;;14.98;10.60;;;5.40;99.90;;;;;;4910929;29;20695;-71
2021/04/15 07:17:24;;;;;;;10.32;8.77;;;5.50;99.90;;;;;;4914078;29;20214;-70
2021/04/15 07:20:16;;;;;;;11.45;10.05;;;5.60;99.90;;;;;;4916047;29;20203;-70
2021/04/15 07:23:27;;;;;;;13.88;9.73;;;5.70;99.90;;;;;;4905364;29;20204;-70
2021/04/15 07:26:18;;;;;;;11.00;8.70;;;5.80;99.90;;;;;;4914365;29;20678;-70
2021/04/15 07:29:15;;;;;;;12.43;8.23;;;5.80;99.90;;;;;;4898709;29;20553;-70
2021/04/15 07:32:07;;;;;;;13.13;8.40;;;5.90;99.90;;;;;;4906389;29;20237;-71
2021/04/15 07:34:59;;;;;;;10.90;8.52;;;6.00;99.90;;;;;;4915048;29;20313;-71
2021/04/15 07:37:58;;;;;;;7.60;6.80;;;6.10;99.90;;;;;;4914314;29;20472;-71
2021/04/15 07:41:00;;;;;;;7.40;6.70;;;6.10;99.90;;;;;;4911910;29;20210;-70
2021/04/15 07:43:46;;;;;;;7.50;6.38;;;6.10;99.90;;;;;;4909036;29;20589;-70
2021/04/15 07:46:26;;;;;;;6.65;5.95;;;6.10;99.90;;;;;;4914955;29;20269;-71
2021/04/15 07:49:15;;;;;;;7.28;6.53;;;6.20;99.90;;;;;;4917746;29;20210;-71
2021/04/15 07:51:48;;;;;;;8.43;7.05;;;6.30;99.90;;;;;;4909127;29;20223;-71
2021/04/15 07:54:52;;;;;;;9.07;7.10;;;6.30;99.90;;;;;;4914813;29;20231;-72
2021/04/15 07:57:49;;;;;;;6.78;6.13;;;6.40;99.90;;;;;;4902294;29;20210;-71
2021/04/15 08:00:31;;;;;;;7.10;6.45;;;6.40;99.90;;;;;;4915437;29;20211;-71
2021/04/15 08:03:22;;;;;;;7.28;6.47;;;6.40;99.90;;;;;;4916911;29;20590;-71
2021/04/15 08:06:05;;;;;;;9.07;6.32;;;6.50;99.90;;;;;;4915871;29;20302;-74
2021/04/15 08:09:06;;;;;;;7.72;6.93;;;6.50;99.90;;;;;;4916721;29;20209;-74
2021/04/15 08:11:49;;;;;;;9.07;6.38;;;6.60;99.90;;;;;;4899572;29;20593;-74
2021/04/15 08:14:50;;;;;;;8.45;7.75;;;6.60;99.90;;;;;;4915863;29;20237;-74
2021/04/15 08:17:39;;;;;;;7.50;6.88;;;6.60;99.90;;;;;;4916633;29;20599;-74
2021/04/15 08:20:27;;;;;;;8.13;6.95;;;6.80;99.90;;;;;;4907831;29;20219;-70
2021/04/15 08:23:18;;;;;;;7.20;6.50;;;7.00;99.90;;;;;;4915518;29;20557;-72
2021/04/15 08:26:18;;;;;;;9.82;5.78;;;7.20;99.90;;;;;;4913354;29;20223;-72
2021/04/15 08:28:57;;;;;;;6.57;5.97;;;7.30;99.90;;;;;;4888184;29;20215;-73
2021/04/15 08:31:31;;;;;;;8.55;7.07;;;7.20;99.90;;;;;;4913745;29;20234;-73
2021/04/15 08:34:07;;;;;;;6.07;5.60;;;7.30;99.90;;;;;;4915180;29;20593;-71
2021/04/15 08:37:10;;;;;;;6.15;5.65;;;7.40;99.90;;;;;;4914805;29;20206;-71
2021/04/15 08:39:51;;;;;;;6.30;5.65;;;7.50;99.90;;;;;;4909492;29;20341;-72
2021/04/15 08:42:32;;;;;;;6.78;5.85;;;7.60;99.90;;;;;;4914174;29;20230;-72
2021/04/15 08:45:10;;;;;;;5.40;5.00;;;7.70;99.90;;;;;;4914993;29;20199;-72
2021/04/15 08:47:53;;;;;;;5.93;5.18;;;7.80;99.90;;;;;;4915369;29;20218;-72
2021/04/15 08:50:30;;;;;;;6.30;4.55;;;7.80;99.90;;;;;;4915583;29;20635;-72
2021/04/15 08:53:04;;;;;;;5.13;4.70;;;7.80;99.90;;;;;;4915047;29;20214;-72
2021/04/15 08:55:38;;;;;;;4.18;3.88;;;7.80;99.90;;;;;;4915656;29;20538;-72
2021/04/15 08:58:30;;;;;;;5.75;5.35;;;8.00;99.90;;;;;;4911483;29;20687;-72
2021/04/15 09:01:02;;;;;;;3.80;3.58;;;8.00;99.90;;;;;;4866333;29;20230;-71
2021/04/15 09:03:37;;;;;;;4.45;4.10;;;8.20;99.90;;;;;;4911601;29;20302;-72
2021/04/15 09:06:19;;;;;;;4.45;3.25;;;8.30;99.90;;;;;;4915041;29;20210;-73
2021/04/15 09:09:06;;;;;;;3.22;3.13;;;8.30;99.90;;;;;;4915623;29;20211;-72
2021/04/15 09:11:40;;;;;;;3.03;2.83;;;8.40;99.90;;;;;;4907744;29;20223;-72
2021/04/15 09:14:19;;;;;;;3.53;3.22;;;8.50;99.90;;;;;;4916840;29;20262;-74
2021/04/15 09:16:56;;;;;;;3.40;3.20;;;8.60;99.90;;;;;;4917641;29;20205;-75
2021/04/15 09:19:35;;;;;;;3.03;2.78;;;8.70;99.90;;;;;;4914394;29;20218;-74
2021/04/15 09:22:21;;;;;;;3.03;2.75;;;8.70;99.90;;;;;;4915760;29;20226;-75
2021/04/15 09:24:56;;;;;;;2.33;2.22;;;8.70;99.90;;;;;;4920143;29;20258;-73
2021/04/15 09:27:32;;;;;;;2.60;2.50;;;8.80;99.90;;;;;;4925281;29;20210;-74
2021/04/15 09:30:15;;;;;;;2.35;2.20;;;8.90;99.90;;;;;;4922281;29;20667;-73
2021/04/15 09:32:52;;;;;;;2.47;2.38;;;9.00;99.90;;;;;;4920464;29;20207;-74
2021/04/15 09:35:52;;;;;;;2.42;2.22;;;9.20;99.90;;;;;;4914859;29;20462;-74
2021/04/15 09:38:58;;;;;;;3.63;2.55;;;9.30;99.90;;;;;;4913880;29;20210;-76
2021/04/15 09:41:51;;;;;;;1.90;1.80;;;9.30;99.90;;;;;;4913648;29;20702;-74
2021/04/15 09:44:37;;;;;;;1.80;1.70;;;9.30;99.90;;;;;;4914812;29;20194;-74
2021/04/15 09:47:13;;;;;;;1.65;1.58;;;9.50;99.90;;;;;;4910283;29;20629;-74
2021/04/15 09:49:52;;;;;;;1.40;1.40;;;9.60;99.90;;;;;;4918564;29;20238;-75
2021/04/15 09:52:37;;;;;;;1.10;1.10;;;9.90;99.90;;;;;;4918107;29;20237;-75
2021/04/15 09:55:13;;;;;;;0.80;0.80;;;10.10;99.70;;;;;;4918430;29;20258;-75
2021/04/15 09:57:45;;;;;;;1.80;1.70;;;10.20;97.80;;;;;;4918848;29;20210;-74
2021/04/15 10:00:20;;;;;;;1.10;1.10;;;10.10;97.10;;;;;;4917639;29;20211;-74
2021/04/15 10:03:07;;;;;;;1.30;1.20;;;10.20;96.70;;;;;;4918794;29;20222;-74
2021/04/15 10:05:52;;;;;;;1.45;1.45;;;10.20;95.60;;;;;;4903658;29;20574;-75
2021/04/15 10:08:26;;;;;;;1.30;1.30;;;10.20;95.80;;;;;;4914247;29;20218;-75
2021/04/15 10:11:02;;;;;;;0.75;0.75;;;10.20;95.20;;;;;;4918171;29;20230;-75
2021/04/15 10:13:40;;;;;;;1.30;1.30;;;10.10;94.80;;;;;;4918667;29;20308;-74
2021/04/15 10:16:18;;;;;;;0.85;0.85;;;10.20;95.50;;;;;;4918739;29;20273;-74
2021/04/15 10:19:03;;;;;;;0.60;0.60;;;10.20;94.00;;;;;;4918741;29;20552;-74
2021/04/15 10:21:41;;;;;;;1.42;0.73;;;10.20;94.00;;;;;;4918455;29;20237;-74
2021/04/15 10:24:15;;;;;;;1.27;0.73;;;10.20;91.70;;;;;;4918659;29;20199;-74
2021/04/15 10:27:05;;;;;;;0.68;0.60;;;10.20;91.40;;;;;;4918572;29;20214;-74
2021/04/15 10:29:58;;;;;;;0.50;0.50;;;10.30;91.80;;;;;;4918456;29;20198;-74
2021/04/15 10:32:40;;;;;;;0.70;0.70;;;10.30;90.90;;;;;;4918574;29;20531;-74
2021/04/15 10:35:43;;;;;;;1.75;0.70;;;10.30;91.00;;;;;;4918859;29;20230;-74
2021/04/15 10:38:41;;;;;;;0.50;0.50;;;10.40;91.20;;;;;;4908728;29;20218;-74
2021/04/15 10:41:37;;;;;;;1.25;1.10;;;10.50;91.40;;;;;;4920554;29;20238;-74
2021/04/15 10:44:43;;;;;;;1.25;0.90;;;10.40;90.60;;;;;;4898560;29;20243;-74
2021/04/15 10:47:32;;;;;;;1.42;0.90;;;10.40;90.10;;;;;;4920177;29;20195;-74
2021/04/15 10:50:09;;;;;;;1.65;1.60;;;10.50;89.20;;;;;;4919832;29;20742;-74
2021/04/15 10:52:50;;;;;;;0.65;0.65;;;10.40;85.70;;;;;;4920639;29;20610;-74
2021/04/15 10:55:22;;;;;;;0.65;0.65;;;10.30;84.10;;;;;;4920023;29;20221;-75
2021/04/15 10:57:49;;;;;;;0.60;0.60;;;10.20;83.30;;;;;;4919327;29;20195;-75
2021/04/15 11:00:30;;;;;;;1.20;1.20;;;10.20;84.30;;;;;;4918699;29;20408;-75
2021/04/15 11:03:09;;;;;;;1.02;1.02;;;10.20;86.60;;;;;;4918302;29;20206;-74
2021/04/15 11:05:41;;;;;;;1.40;1.40;;;10.30;86.40;;;;;;4921451;29;20214;-75
2021/04/15 11:08:16;;;;;;;1.48;1.48;;;10.40;85.50;;;;;;4920258;29;20214;-75
2021/04/15 11:10:43;;;;;;;2.65;2.45;;;10.40;82.20;;;;;;4920570;29;20289;-74
2021/04/15 11:13:21;;;;;;;1.30;1.30;;;10.30;82.40;;;;;;4920283;29;20215;-76
2021/04/15 11:15:50;;;;;;;2.80;1.80;;;10.30;81.20;;;;;;4919945;29;20230;-75
2021/04/15 11:18:25;;;;;;;1.45;1.35;;;10.30;81.80;;;;;;4919775;29;20263;-75
2021/04/15 11:21:10;;;;;;;1.55;1.55;;;10.50;84.00;;;;;;4919384;29;20289;-74
2021/04/15 11:23:36;;;;;;;1.27;0.70;;;10.70;82.20;;;;;;4916925;29;20206;-74
2021/04/15 11:26:21;;;;;;;1.10;1.00;;;10.80;82.50;;;;;;4917052;29;20243;-75
2021/04/15 11:28:50;;;;;;;1.20;1.20;;;10.80;77.90;;;;;;4906397;29;20233;-72
2021/04/15 11:31:30;;;;;;;1.27;1.27;;;10.80;77.70;;;;;;4917930;29;20373;-73
2021/04/15 11:34:09;;;;;;;1.00;1.00;;;10.80;81.10;;;;;;4916936;29;20463;-73
2021/04/15 11:36:39;;;;;;;0.70;0.70;;;10.80;81.50;;;;;;4916519;29;20277;-73
2021/04/15 11:39:15;;;;;;;1.00;1.00;;;10.80;80.80;;;;;;4917417;29;20578;-73
2021/04/15 11:41:52;;;;;;;0.65;0.65;;;10.80;81.80;;;;;;4907868;29;20229;-73
2021/04/15 11:44:30;;;;;;;0.60;0.60;;;10.70;79.10;;;;;;4918551;29;20202;-73
2021/04/15 11:46:58;;;;;;;0.77;0.77;;;10.70;73.60;;;;;;4919467;29;20225;-73
2021/04/15 11:49:29;;;;;;;0.60;0.60;;;10.90;71.20;;;;;;4919680;29;20236;-73
2021/04/15 11:52:00;;;;;;;0.65;0.65;;;10.90;70.40;;;;;;4918684;29;20305;-73
2021/04/15 11:54:29;;;;;;;0.90;0.90;;;10.90;70.70;;;;;;4918993;29;20258;-73
2021/04/15 11:56:55;;;;;;;0.80;0.80;;;11.10;71.90;;;;;;4921172;29;20210;-73
2021/04/15 11:59:26;;;;;;;0.70;0.70;;;11.10;71.20;;;;;;4919923;29;20206;-73
2021/04/15 12:01:53;;;;;;;0.80;0.80;;;11.20;71.70;;;;;;4918895;29;20238;-73
2021/04/15 12:04:26;;;;;;;1.23;0.70;;;11.20;70.60;;;;;;4917866;29;20210;-73
2021/04/15 12:06:59;;;;;;;0.68;0.68;;;11.30;72.10;;;;;;4916615;29;20206;-73
2021/04/15 12:09:32;;;;;;;0.57;0.57;;;11.30;72.70;;;;;;4914099;29;20218;-71
2021/04/15 12:12:10;;;;;;;0.75;0.75;;;11.30;72.90;;;;;;4899895;29;20708;-72
2021/04/15 12:14:37;;;;;;;0.80;0.80;;;11.40;73.40;;;;;;4916174;29;20226;-70
2021/04/15 12:17:11;;;;;;;0.60;0.60;;;11.60;72.20;;;;;;4917556;29;20214;-74
2021/04/15 12:19:51;;;;;;;0.80;0.80;;;11.50;72.40;;;;;;4916222;29;20225;-74
2021/04/15 12:22:24;;;;;;;0.70;0.70;;;11.60;74.80;;;;;;4914688;29;20630;-76
2021/04/15 12:24:56;;;;;;;0.70;0.70;;;11.70;72.90;;;;;;4916982;29;20198;-74
2021/04/15 12:27:25;;;;;;;0.60;0.60;;;11.80;71.10;;;;;;4916655;29;20582;-74
2021/04/15 12:30:00;;;;;;;0.75;0.52;;;11.80;70.30;;;;;;4915408;29;20203;-73
2021/04/15 12:32:36;;;;;;;0.80;0.80;;;11.70;69.90;;;;;;4916407;29;20230;-75
2021/04/15 12:35:14;;;;;;;0.52;0.52;;;11.70;70.00;;;;;;4916384;29;20512;-73
2021/04/15 12:37:44;;;;;;;3.55;0.80;;;11.70;69.30;;;;;;4916630;29;20218;-74
2021/04/15 12:40:29;;;;;;;0.90;0.85;;;11.70;70.20;;;;;;4915644;29;20214;-74
2021/04/15 12:42:59;;;;;;;3.72;1.42;;;11.60;69.30;;;;;;4896646;29;20222;-75
2021/04/15 12:45:30;;;;;;;0.90;0.90;;;11.40;69.50;;;;;;4908201;29;20217;-74
2021/04/15 12:47:58;;;;;;;0.70;0.70;;;11.30;69.70;;;;;;4915981;29;20270;-75
2021/04/15 12:50:25;;;;;;;1.10;0.88;;;11.30;69.80;;;;;;4916114;29;20211;-73
2021/04/15 12:52:53;;;;;;;0.88;0.65;;;11.40;70.40;;;;;;4915786;29;20675;-71
2021/04/15 12:55:22;;;;;;;1.02;1.02;;;11.30;69.60;;;;;;4913175;29;20218;-70
2021/04/15 12:57:49;;;;;;;1.02;1.02;;;11.50;69.60;;;;;;4915539;29;20217;-70
2021/04/15 13:00:18;;;;;;;0.93;0.93;;;11.60;68.60;;;;;;4914777;29;20644;-71
2021/04/15 13:02:45;;;;;;;1.42;1.33;;;11.60;69.70;;;;;;4915900;29;20734;-70
2021/04/15 13:05:32;;;;;;;0.80;0.80;;;11.60;70.00;;;;;;4916037;29;20609;-71
2021/04/15 13:08:21;;;;;;;1.15;1.15;;;11.60;71.10;;;;;;4915633;29;20261;-70
2021/04/15 13:10:48;;;;;;;1.17;1.17;;;11.50;73.30;;;;;;4916005;29;20230;-70
2021/04/15 13:13:35;;;;;;;0.60;0.60;;;11.20;74.60;;;;;;4915009;29;20290;-69
2021/04/15 13:16:03;;;;;;;0.90;0.90;;;11.10;74.90;;;;;;4915820;29;20322;-69
2021/04/15 13:18:47;;;;;;;0.90;0.90;;;11.00;76.90;;;;;;4915550;29;20252;-70
2021/04/15 13:21:26;;;;;;;0.82;0.80;;;11.00;74.00;;;;;;4915532;29;20341;-70
2021/04/15 13:23:53;;;;;;;0.95;0.95;;;11.00;73.50;;;;;;4919750;29;20214;-70
2021/04/15 13:26:37;;;;;;;0.77;0.77;;;11.00;72.90;;;;;;4919470;29;20198;-71
2021/04/15 13:29:21;;;;;;;0.88;0.88;;;11.10;71.10;;;;;;4919644;29;20223;-70
2021/04/15 13:31:56;;;;;;;0.80;0.80;;;11.10;71.40;;;;;;4918985;29;20309;-70
2021/04/15 13:34:25;;;;;;;1.05;1.05;;;11.10;73.60;;;;;;4918842;29;20573;-71
2021/04/15 13:36:52;;;;;;;1.95;1.13;;;11.20;75.40;;;;;;4918318;29;20301;-73
2021/04/15 13:39:35;;;;;;;1.02;1.02;;;11.20;75.40;;;;;;4923352;29;20210;-74
2021/04/15 13:42:41;;;;;;;1.10;1.10;;;11.20;75.20;;;;;;4921277;29;20266;-72
2021/04/15 13:45:45;;;;;;;1.73;1.42;;;11.30;75.20;;;;;;4919335;29;20194;-72
2021/04/15 13:48:41;;;;;;;0.75;0.75;;;11.30;74.00;;;;;;4919597;29;20265;-73
2021/04/15 13:51:14;;;;;;;0.82;0.70;;;10.80;73.10;;;;;;4917512;29;20235;-72
2021/04/15 13:54:23;;;;;;;1.30;0.80;;;10.70;73.20;;;;;;4919256;29;20207;-70
2021/04/15 13:57:06;;;;;;;1.23;1.15;;;10.60;72.60;;;;;;4917198;29;20217;-73
2021/04/15 13:59:54;;;;;;;1.00;1.00;;;10.70;75.00;;;;;;4915163;29;20234;-73
2021/04/15 14:02:58;;;;;;;1.08;0.73;;;10.90;74.20;;;;;;4918020;29;20249;-72
2021/04/15 14:05:30;;;;;;;1.02;1.02;;;10.90;73.40;;;;;;4916010;29;20256;-72
2021/04/15 14:08:14;;;;;;;0.50;0.50;;;10.90;70.10;;;;;;4918872;29;20321;-71
2021/04/15 14:10:40;;;;;;;0.98;0.98;;;10.90;68.70;;;;;;4914715;29;20281;-71
2021/04/15 14:13:17;;;;;;;0.88;0.88;;;10.90;69.70;;;;;;4913053;29;20246;-72
2021/04/15 14:15:47;;;;;;;0.80;0.80;;;11.00;67.70;;;;;;4918210;29;20237;-70
2021/04/15 14:18:24;;;;;;;1.65;1.00;;;10.90;69.10;;;;;;4918885;29;20207;-70
2021/04/15 14:20:53;;;;;;;2.15;2.10;;;10.80;71.10;;;;;;4917981;29;20312;-70
2021/04/15 14:23:27;;;;;;;1.60;1.60;;;10.80;72.50;;;;;;4917684;29;20206;-69
2021/04/15 14:26:01;;;;;;;1.05;1.05;;;10.80;68.90;;;;;;4918339;29;20288;-70
2021/04/15 14:28:30;;;;;;;0.70;0.70;;;10.60;64.40;;;;;;4909132;29;20214;-70
2021/04/15 14:31:10;;;;;;;1.00;1.00;;;10.60;63.80;;;;;;4909402;29;20312;-69
2021/04/15 14:33:36;;;;;;;1.23;1.20;;;10.50;63.90;;;;;;4912975;29;20210;-69
2021/04/15 14:36:04;;;;;;;1.10;0.90;;;10.40;64.50;;;;;;4917315;29;20412;-71
2021/04/15 14:38:33;;;;;;;2.67;1.00;;;10.50;66.20;;;;;;4917135;29;20221;-70
2021/04/15 14:41:01;;;;;;;1.42;1.33;;;10.40;68.50;;;;;;4916954;29;20233;-70
2021/04/15 14:43:33;;;;;;;1.00;1.00;;;10.40;72.20;;;;;;4916523;29;20349;-70
2021/04/15 14:46:10;;;;;;;1.02;1.02;;;10.30;72.40;;;;;;4917280;29;20262;-70
2021/04/15 14:48:37;;;;;;;1.23;1.13;;;10.30;73.00;;;;;;4917539;29;20676;-72
2021/04/15 14:51:12;;;;;;;1.30;1.20;;;10.40;73.10;;;;;;4917141;29;20231;-70
2021/04/15 14:53:39;;;;;;;1.30;1.17;;;10.30;72.10;;;;;;4917130;29;20229;-69
2021/04/15 14:56:12;;;;;;;1.33;1.17;;;10.20;71.20;;;;;;4915774;29;20273;-72
2021/04/15 14:58:41;;;;;;;2.50;1.25;;;10.10;70.70;;;;;;4913594;29;20230;-71
2021/04/15 15:01:13;;;;;;;0.77;0.77;;;10.00;68.90;;;;;;4905872;29;20724;-70
2021/04/15 15:03:41;;;;;;;1.27;1.08;;;10.00;66.40;;;;;;4912637;29;20202;-69
2021/04/15 15:06:10;;;;;;;1.33;1.08;;;9.90;68.80;;;;;;4906962;29;20225;-69
2021/04/15 15:08:41;;;;;;;0.90;0.90;;;9.90;71.40;;;;;;4917026;29;20211;-69
2021/04/15 15:11:08;;;;;;;1.05;1.05;;;9.90;73.50;;;;;;4916586;29;20715;-71
2021/04/15 15:13:40;;;;;;;1.20;1.20;;;9.80;74.20;;;;;;4916166;29;20202;-70
2021/04/15 15:16:10;;;;;;;1.40;1.40;;;9.90;74.30;;;;;;4915773;29;20325;-71
2021/04/15 15:18:36;;;;;;;1.20;1.20;;;10.00;72.80;;;;;;4898556;29;20215;-70
2021/04/15 15:21:18;;;;;;;0.90;0.90;;;10.10;70.90;;;;;;4900586;29;20257;-70
2021/04/15 15:24:02;;;;;;;1.67;1.38;;;10.00;70.90;;;;;;4916657;29;20213;-71
2021/04/15 15:26:36;;;;;;;2.70;1.60;;;10.00;73.30;;;;;;4916615;29;20210;-70
2021/04/15 15:29:06;;;;;;;0.95;0.95;;;10.10;73.60;;;;;;4916893;29;20293;-69
2021/04/15 15:31:38;;;;;;;1.15;1.15;;;10.20;70.80;;;;;;4916658;29;20688;-70
2021/04/15 15:34:28;;;;;;;0.77;0.77;;;10.20;71.10;;;;;;4916313;29;20230;-70
2021/04/15 15:36:56;;;;;;;1.20;1.20;;;10.20;69.00;;;;;;4915775;29;20223;-70
2021/04/15 15:39:29;;;;;;;1.95;0.68;;;10.00;65.90;;;;;;4916973;29;20576;-70
2021/04/15 15:41:57;;;;;;;0.70;0.70;;;9.90;66.30;;;;;;4916054;29;20242;-70
2021/04/15 15:44:50;;;;;;;0.80;0.80;;;9.90;67.90;;;;;;4915160;29;20714;-70
2021/04/15 15:47:40;;;;;;;0.82;0.82;;;9.90;67.60;;;;;;4915777;29;20206;-70
2021/04/15 15:50:12;;;;;;;0.73;0.73;;;10.00;66.80;;;;;;4910223;29;20602;-71
2021/04/15 15:52:38;;;;;;;2.50;1.13;;;10.10;67.10;;;;;;4915786;29;20218;-71
2021/04/15 15:55:24;;;;;;;0.90;0.90;;;10.00;65.30;;;;;;4915842;29;20231;-71
2021/04/15 15:57:56;;;;;;;1.27;0.90;;;10.00;65.50;;;;;;4914053;29;20206;-70
2021/04/15 16:00:25;;;;;;;1.50;1.40;;;10.00;65.60;;;;;;4917844;29;20808;-72
2021/04/15 16:03:06;;;;;;;1.42;1.42;;;10.00;66.20;;;;;;4900745;29;20597;-71
2021/04/15 16:05:34;;;;;;;3.35;1.00;;;10.00;66.40;;;;;;4908112;29;20521;-72
2021/04/15 16:08:10;;;;;;;0.80;0.80;;;10.00;66.70;;;;;;4915822;29;20213;-72
2021/04/15 16:10:40;;;;;;;1.02;1.02;;;10.00;67.00;;;;;;4916324;29;20226;-72
2021/04/15 16:13:11;;;;;;;1.08;1.00;;;9.90;66.20;;;;;;4915855;29;20210;-72
2021/04/15 16:15:41;;;;;;;1.40;1.40;;;9.80;66.40;;;;;;4915345;29;20222;-72
2021/04/15 16:18:11;;;;;;;1.40;1.40;;;9.80;66.70;;;;;;4915829;29;20217;-72
2021/04/15 16:20:38;;;;;;;0.60;0.60;;;9.80;68.70;;;;;;4916254;29;20282;-71
2021/04/15 16:23:05;;;;;;;1.38;1.30;;;9.80;67.90;;;;;;4915693;29;20211;-72
2021/04/15 16:25:32;;;;;;;1.70;1.25;;;9.80;69.00;;;;;;4915438;29;20281;-71
2021/04/15 16:27:58;;;;;;;1.00;1.00;;;9.90;69.80;;;;;;4914453;29;20206;-71
2021/04/15 16:30:29;;;;;;;1.10;1.10;;;9.80;69.80;;;;;;4915144;29;20610;-69
2021/04/15 16:32:56;;;;;;;1.10;0.98;;;9.80;68.90;;;;;;4915561;29;20222;-70
2021/04/15 16:35:22;;;;;;;1.05;1.05;;;9.80;68.70;;;;;;4916015;29;20314;-69
2021/04/15 16:37:53;;;;;;;1.25;1.25;;;9.60;68.30;;;;;;4913341;29;20210;-70
2021/04/15 16:40:19;;;;;;;1.38;1.38;;;9.60;69.10;;;;;;4914710;29;20207;-70
2021/04/15 16:42:46;;;;;;;1.17;1.17;;;9.50;69.70;;;;;;4915443;29;20211;-70
2021/04/15 16:45:15;;;;;;;0.70;0.70;;;9.50;69.30;;;;;;4915167;29;20217;-70
2021/04/15 16:47:41;;;;;;;1.70;1.70;;;9.50;70.40;;;;;;4916253;29;20206;-69
2021/04/15 16:50:12;;;;;;;1.70;1.60;;;9.50;71.50;;;;;;4915203;29;20222;-69
2021/04/15 16:52:39;;;;;;;1.27;1.27;;;9.60;72.20;;;;;;4915645;29;20210;-70
2021/04/15 16:55:08;;;;;;;2.65;2.55;;;9.60;71.40;;;;;;4915215;29;20227;-67
2021/04/15 16:57:34;;;;;;;1.85;1.58;;;9.60;72.20;;;;;;4915489;29;20530;-70
2021/04/15 17:00:01;;;;;;;1.38;1.38;;;9.60;72.60;;;;;;4914026;29;20652;-70
2021/04/15 17:02:27;;;;;;;1.50;1.40;;;9.60;73.50;;;;;;4906130;29;20309;-72
2021/04/15 17:04:53;;;;;;;1.30;1.30;;;9.50;73.70;;;;;;4914469;29;20273;-72
2021/04/15 17:07:25;;;;;;;1.38;1.38;;;9.50;74.50;;;;;;4914088;29;20718;-72
2021/04/15 17:09:52;;;;;;;1.27;1.13;;;9.50;74.40;;;;;;4915929;29;20297;-72
2021/04/15 17:12:18;;;;;;;1.50;1.50;;;9.40;74.30;;;;;;4915687;29;20226;-72
2021/04/15 17:14:44;;;;;;;2.75;1.92;;;9.30;74.40;;;;;;4915970;29;20274;-72
2021/04/15 17:17:10;;;;;;;1.00;1.00;;;9.30;75.00;;;;;;4917853;29;20340;-71
2021/04/15 17:19:36;;;;;;;1.20;1.20;;;9.30;74.50;;;;;;4915199;29;20206;-71
2021/04/15 17:22:03;;;;;;;1.27;1.27;;;9.30;74.40;;;;;;4914938;29;20230;-71
2021/04/15 17:24:31;;;;;;;1.50;1.50;;;9.20;74.00;;;;;;4915025;29;20293;-71
2021/04/15 17:26:57;;;;;;;1.75;1.75;;;9.20;74.80;;;;;;4915034;29;20290;-72
2021/04/15 17:29:23;;;;;;;2.30;2.25;;;9.20;74.40;;;;;;4914547;29;20623;-73
2021/04/15 17:31:50;;;;;;;1.05;1.05;;;9.10;74.50;;;;;;4915005;29;20234;-72
2021/04/15 17:34:17;;;;;;;1.38;1.27;;;9.10;74.60;;;;;;4914033;29;20207;-72
2021/04/15 17:36:43;;;;;;;1.05;1.05;;;9.10;74.60;;;;;;4913396;29;20321;-73